createdAt,value
2023-01-08T00:01:14.110Z,49.97
2023-01-08T00:03:41.584Z,49.72
2023-01-08T00:06:12.691Z,47.00
2023-01-08T00:08:39.436Z,40.83
2023-01-08T00:11:06.238Z,53.30
2023-01-08T00:13:32.972Z,45.33
2023-01-08T00:16:04.220Z,45.38
2023-01-08T00:18:30.980Z,43.22
2023-01-08T00:20:58.320Z,41.50
2023-01-08T00:23:25.129Z,42.20
2023-01-08T00:25:51.909Z,41.15
2023-01-08T00:28:20.540Z,39.08
2023-01-08T00:30:48.238Z,49.35
2023-01-08T00:33:15.217Z,46.05
2023-01-08T00:35:42.478Z,46.20
2023-01-08T00:38:09.208Z,48.72
2023-01-08T00:40:36.608Z,45.58
2023-01-08T00:43:04.685Z,52.45
2023-01-08T00:45:32.741Z,43.35
2023-01-08T00:47:59.471Z,41.50
2023-01-08T00:50:26.358Z,40.85
2023-01-08T00:52:53.123Z,43.80
2023-01-08T00:55:19.889Z,42.08
2023-01-08T00:57:46.577Z,39.92
2023-01-08T01:00:15.460Z,51.72
2023-01-08T01:02:42.820Z,40.78
2023-01-08T01:05:10.973Z,39.88
2023-01-08T01:07:37.732Z,44.28
2023-01-08T01:10:04.907Z,39.72
2023-01-08T01:12:31.641Z,41.20
2023-01-08T01:14:58.319Z,37.40
2023-01-08T01:17:25.288Z,44.20
2023-01-08T01:19:52.484Z,42.90
2023-01-08T01:22:19.186Z,50.97
2023-01-08T01:24:45.939Z,48.10
2023-01-08T01:27:12.614Z,45.30
2023-01-08T01:29:39.310Z,47.33
2023-01-08T01:32:06.360Z,43.17
2023-01-08T01:34:33.076Z,43.10
2023-01-08T01:36:59.950Z,50.30
2023-01-08T01:39:26.767Z,40.50
2023-01-08T01:41:53.669Z,38.95
2023-01-08T01:44:43.896Z,43.88
2023-01-08T01:47:21.322Z,41.33
2023-01-08T01:49:56.191Z,44.22
2023-01-08T01:52:23.835Z,43.20
2023-01-08T01:54:51.325Z,40.42
2023-01-08T01:57:20.519Z,44.72
2023-01-08T01:59:48.146Z,40.20
2023-01-08T02:02:15.189Z,44.17
2023-01-08T02:04:41.984Z,48.42
2023-01-08T02:07:20.846Z,39.65
2023-01-08T02:10:13.621Z,40.72
2023-01-08T02:12:47.679Z,37.25
2023-01-08T02:15:35.214Z,45.20
2023-01-08T02:18:20.043Z,39.83
2023-01-08T02:20:52.596Z,38.50
2023-01-08T02:23:58.383Z,46.75
2023-01-08T02:26:28.688Z,44.17
2023-01-08T02:29:00.941Z,39.28
2023-01-08T02:31:29.394Z,45.92
2023-01-08T02:33:56.266Z,44.08
2023-01-08T02:36:25.678Z,42.55
2023-01-08T02:41:53.829Z,48.08
2023-01-08T02:44:50.394Z,40.00
2023-01-08T02:47:23.979Z,34.75
2023-01-08T02:49:55.386Z,42.33
2023-01-08T02:52:23.655Z,40.53
2023-01-08T02:54:51.250Z,42.33
2023-01-08T02:57:19.181Z,29.50
2023-01-08T02:59:46.620Z,39.92
2023-01-08T03:02:13.671Z,40.47
2023-01-08T03:04:48.489Z,35.85
2023-01-08T03:07:15.202Z,31.80
2023-01-08T03:09:42.217Z,35.50
2023-01-08T03:12:41.582Z,38.22
2023-01-08T03:15:09.735Z,40.35
2023-01-08T03:17:40.309Z,43.28
2023-01-08T03:20:10.753Z,37.28
2023-01-08T03:22:39.780Z,41.45
2023-01-08T03:25:07.277Z,37.45
2023-01-08T03:27:40.435Z,41.90
2023-01-08T03:30:08.618Z,43.97
2023-01-08T03:32:35.647Z,45.60
2023-01-08T03:35:02.947Z,48.97
2023-01-08T03:37:34.319Z,56.90
2023-01-08T03:40:13.453Z,58.58
2023-01-08T03:42:40.503Z,51.20
2023-01-08T03:45:08.806Z,49.15
2023-01-08T03:47:37.025Z,45.05
2023-01-08T03:50:06.923Z,49.30
2023-01-08T03:52:33.712Z,51.42
2023-01-08T03:55:00.420Z,41.80
2023-01-08T03:57:27.197Z,52.33
2023-01-08T03:59:53.984Z,25.83
2023-01-08T04:02:20.856Z,45.72
2023-01-08T04:04:49.223Z,42.33
2023-01-08T04:07:16.067Z,57.20
2023-01-08T04:09:44.002Z,54.00
2023-01-08T04:12:10.725Z,47.08
2023-01-08T04:14:37.368Z,47.88
2023-01-08T04:17:04.168Z,54.85
2023-01-08T04:19:30.849Z,54.40
2023-01-08T04:21:58.067Z,48.50
2023-01-08T04:24:25.753Z,58.05
2023-01-08T04:26:52.396Z,48.35
2023-01-08T04:29:20.495Z,57.33
2023-01-08T04:31:47.221Z,58.15
2023-01-08T04:34:14.321Z,50.35
2023-01-08T04:36:41.015Z,47.80
2023-01-08T04:39:09.335Z,51.85
2023-01-08T04:41:36.031Z,51.03
2023-01-08T04:44:03.086Z,50.42
2023-01-08T04:46:29.887Z,51.22
2023-01-08T04:48:56.642Z,55.88
2023-01-08T04:51:23.953Z,52.30
2023-01-08T04:53:50.624Z,86.13
2023-01-08T04:56:17.887Z,49.97
2023-01-08T04:58:46.039Z,100.75
2023-01-08T05:01:14.973Z,134.32
2023-01-08T05:03:41.797Z,126.50
2023-01-08T05:06:08.562Z,122.47
2023-01-08T05:08:35.439Z,123.88
2023-01-08T05:11:02.952Z,127.68
2023-01-08T05:13:32.176Z,121.45
2023-01-08T05:16:00.342Z,99.97
2023-01-08T05:18:28.212Z,120.78
2023-01-08T05:20:55.399Z,114.00
2023-01-08T05:23:22.135Z,107.03
2023-01-08T05:25:48.840Z,109.32
2023-01-08T05:28:15.542Z,107.93
2023-01-08T05:30:42.225Z,99.72
2023-01-08T05:33:08.971Z,100.43
2023-01-08T05:35:35.707Z,60.58
2023-01-08T05:38:02.412Z,95.38
2023-01-08T05:40:29.329Z,84.90
2023-01-08T05:42:56.007Z,72.32
2023-01-08T05:45:22.718Z,43.17
2023-01-08T05:47:49.398Z,71.53
2023-01-08T05:50:16.234Z,52.33
2023-01-08T05:52:42.940Z,36.28
2023-01-08T05:55:10.386Z,58.47
2023-01-08T05:57:37.097Z,36.55
2023-01-08T06:00:06.917Z,53.25
2023-01-08T06:02:33.790Z,57.92
2023-01-08T06:05:00.465Z,28.00
2023-01-08T06:07:29.342Z,39.25
2023-01-08T06:09:56.144Z,51.33
2023-01-08T06:12:23.916Z,46.10
2023-01-08T06:14:50.577Z,39.10
2023-01-08T06:17:17.342Z,32.80
2023-01-08T06:19:46.628Z,31.13
2023-01-08T06:22:13.354Z,32.15
2023-01-08T06:24:40.008Z,42.10
2023-01-08T06:27:06.784Z,45.75
2023-01-08T06:29:33.479Z,56.03
2023-01-08T06:32:00.156Z,46.90
2023-01-08T06:34:27.014Z,45.20
2023-01-08T06:36:53.798Z,36.15
2023-01-08T06:39:20.427Z,38.20
2023-01-08T06:41:47.092Z,27.20
2023-01-08T06:44:13.733Z,28.27
2023-01-08T06:46:41.649Z,40.95
2023-01-08T06:49:08.733Z,23.15
2023-01-08T06:51:36.093Z,29.42
2023-01-08T06:54:02.936Z,44.67
2023-01-08T06:56:29.651Z,39.83
2023-01-08T06:58:56.371Z,38.95
2023-01-08T07:01:23.254Z,71.18
2023-01-08T07:03:49.998Z,85.72
2023-01-08T07:06:18.848Z,103.63
2023-01-08T07:08:46.201Z,92.65
2023-01-08T07:11:13.435Z,128.75
2023-01-08T07:13:41.392Z,92.85
2023-01-08T07:16:09.123Z,81.57
2023-01-08T07:18:36.232Z,85.70
2023-01-08T07:21:04.117Z,85.00
2023-01-08T07:23:30.919Z,82.45
2023-01-08T07:26:01.671Z,89.90
2023-01-08T07:28:30.863Z,82.88
2023-01-08T07:30:58.732Z,72.30
2023-01-08T07:33:25.449Z,56.95
2023-01-08T07:35:55.785Z,52.95
2023-01-08T07:38:23.045Z,48.55
2023-01-08T07:40:49.896Z,47.30
2023-01-08T07:43:16.571Z,37.13
2023-01-08T07:45:43.422Z,28.90
2023-01-08T07:48:10.683Z,34.42
2023-01-08T07:50:37.770Z,65.30
2023-01-08T07:53:04.413Z,61.08
2023-01-08T07:55:31.753Z,59.47
2023-01-08T07:57:58.771Z,63.55
2023-01-08T08:00:25.856Z,35.85
2023-01-08T08:02:52.837Z,33.80
2023-01-08T08:05:19.701Z,33.17
2023-01-08T08:07:46.349Z,35.58
2023-01-08T08:10:13.131Z,51.58
2023-01-08T08:12:39.796Z,32.58
2023-01-08T08:15:07.176Z,38.40
2023-01-08T08:17:33.937Z,31.67
2023-01-08T08:20:00.658Z,28.98
2023-01-08T08:22:27.539Z,23.65
2023-01-08T08:24:54.260Z,17.90
2023-01-08T08:27:20.978Z,20.35
2023-01-08T08:29:47.682Z,20.38
2023-01-08T08:32:16.649Z,20.38
2023-01-08T08:34:43.315Z,23.80
2023-01-08T08:37:10.038Z,20.85
2023-01-08T08:39:36.767Z,21.38
2023-01-08T08:42:03.479Z,21.88
2023-01-08T08:44:30.132Z,22.85
2023-01-08T08:46:57.047Z,20.52
2023-01-08T08:49:23.767Z,22.05
2023-01-08T08:51:50.516Z,25.75
2023-01-08T08:54:17.230Z,20.73
2023-01-08T08:56:43.853Z,21.13
2023-01-08T08:59:13.275Z,23.52
2023-01-08T09:01:40.136Z,20.50
2023-01-08T09:04:06.890Z,14.93
2023-01-08T09:06:33.570Z,18.00
2023-01-08T09:09:00.488Z,16.33
2023-01-08T09:11:27.197Z,19.05
2023-01-08T09:13:53.869Z,20.25
2023-01-08T09:16:20.678Z,20.13
2023-01-08T09:18:49.149Z,18.15
2023-01-08T09:21:15.990Z,17.13
2023-01-08T09:23:42.669Z,17.65
2023-01-08T09:26:09.777Z,17.45
2023-01-08T09:28:36.471Z,19.50
2023-01-08T09:31:04.101Z,18.65
2023-01-08T09:33:31.125Z,18.25
2023-01-08T09:35:57.798Z,17.80
2023-01-08T09:38:24.530Z,13.32
2023-01-08T09:40:58.152Z,15.75
2023-01-08T09:43:26.791Z,14.90
2023-01-08T09:45:56.283Z,16.48
2023-01-08T09:48:26.826Z,17.10
2023-01-08T09:50:53.576Z,16.05
2023-01-08T09:53:20.494Z,14.57
2023-01-08T09:56:09.048Z,15.63
2023-01-08T09:59:13.604Z,29.77
2023-01-08T10:01:41.299Z,16.17
2023-01-08T10:04:21.290Z,12.05
2023-01-08T10:06:52.927Z,15.38
2023-01-08T10:09:23.164Z,12.30
2023-01-08T10:11:50.798Z,18.48
2023-01-08T10:14:22.929Z,13.23
2023-01-08T10:17:21.914Z,13.73
2023-01-08T10:19:48.593Z,13.60
2023-01-08T10:22:17.371Z,12.95
2023-01-08T10:24:44.456Z,18.77
2023-01-08T10:27:17.491Z,17.88
2023-01-08T10:29:44.639Z,16.40
2023-01-08T10:32:17.181Z,13.57
2023-01-08T10:34:56.339Z,15.88
2023-01-08T10:37:22.929Z,16.13
2023-01-08T10:39:49.987Z,15.38
2023-01-08T10:42:18.326Z,22.10
2023-01-08T10:44:55.577Z,16.10
2023-01-08T10:47:22.873Z,18.73
2023-01-08T10:49:49.603Z,15.30
2023-01-08T10:52:28.341Z,14.40
2023-01-08T10:54:55.676Z,16.73
2023-01-08T10:57:26.768Z,14.82
2023-01-08T10:59:54.225Z,17.48
2023-01-08T11:02:27.024Z,15.80
2023-01-08T11:04:53.889Z,18.27
2023-01-08T11:07:22.413Z,13.50
2023-01-08T11:09:51.624Z,12.98
2023-01-08T11:15:00.635Z,11.98
2023-01-08T11:17:27.952Z,18.48
2023-01-08T11:19:55.959Z,16.35
2023-01-08T11:22:26.748Z,15.50
2023-01-08T11:24:54.320Z,16.02
2023-01-08T11:27:23.832Z,18.23
2023-01-08T11:30:06.445Z,18.83
2023-01-08T11:32:41.980Z,19.27
2023-01-08T11:35:28.633Z,13.90
2023-01-08T11:38:00.220Z,15.00
2023-01-08T11:40:29.415Z,13.30
2023-01-08T11:45:51.080Z,16.88
2023-01-08T11:48:42.351Z,14.05
2023-01-08T11:51:30.277Z,17.08
2023-01-08T11:54:28.688Z,15.25
2023-01-08T11:57:43.538Z,15.00
2023-01-08T12:00:54.648Z,13.50
2023-01-08T12:03:39.614Z,11.25
2023-01-08T12:06:25.029Z,12.30
2023-01-08T12:09:10.238Z,13.73
2023-01-08T12:12:00.613Z,15.45
2023-01-08T12:15:09.318Z,10.43
2023-01-08T12:17:57.286Z,10.68
2023-01-08T12:20:29.669Z,14.60
2023-01-08T12:23:30.156Z,14.27
2023-01-08T12:26:13.431Z,12.45
2023-01-08T12:29:04.416Z,13.95
2023-01-08T12:31:51.454Z,12.63
2023-01-08T12:35:15.929Z,17.33
2023-01-08T12:37:52.057Z,13.73
2023-01-08T12:40:24.460Z,15.32
2023-01-08T12:43:00.581Z,14.63
2023-01-08T12:45:30.496Z,14.40
2023-01-08T12:50:36.158Z,13.95
2023-01-08T12:53:18.150Z,16.70
2023-01-08T12:55:47.268Z,14.88
2023-01-08T12:58:25.582Z,12.90
2023-01-08T13:01:15.347Z,16.52
2023-01-08T13:03:42.433Z,15.43
2023-01-08T13:06:12.537Z,13.55
2023-01-08T13:08:40.611Z,12.00
2023-01-08T13:11:08.022Z,17.33
2023-01-08T13:13:36.977Z,16.60
2023-01-08T13:16:14.381Z,14.73
2023-01-08T13:18:41.313Z,23.80
2023-01-08T13:21:11.302Z,17.42
2023-01-08T13:23:38.458Z,16.20
2023-01-08T13:26:06.439Z,16.90
2023-01-08T13:28:38.706Z,12.90
2023-01-08T13:31:20.616Z,19.95
2023-01-08T13:33:49.216Z,15.20
2023-01-08T13:36:16.359Z,17.42
2023-01-08T13:38:44.212Z,16.98
2023-01-08T13:41:31.698Z,19.27
2023-01-08T13:44:26.360Z,17.67
2023-01-08T13:46:58.573Z,21.98
2023-01-08T13:49:35.846Z,16.40
2023-01-08T13:52:02.592Z,19.65
2023-01-08T13:54:35.553Z,18.63
2023-01-08T13:57:16.088Z,18.17
2023-01-08T13:59:52.478Z,24.35
2023-01-08T14:02:29.983Z,24.10
2023-01-08T14:04:57.898Z,15.43
2023-01-08T14:07:25.432Z,16.88
2023-01-08T14:09:53.024Z,29.80
2023-01-08T14:12:24.171Z,25.50
2023-01-08T14:14:58.883Z,18.75
2023-01-08T14:17:31.050Z,25.00
2023-01-08T14:19:58.706Z,18.95
2023-01-08T14:22:36.064Z,28.73
2023-01-08T14:25:06.456Z,17.48
2023-01-08T14:27:33.980Z,17.58
2023-01-08T14:30:00.933Z,21.48
2023-01-08T14:32:29.479Z,19.90
2023-01-08T14:34:58.148Z,21.48
2023-01-08T14:37:25.131Z,25.33
2023-01-08T14:39:54.765Z,20.20
2023-01-08T14:42:42.857Z,29.38
2023-01-08T14:47:46.037Z,22.52
2023-01-08T14:50:26.268Z,27.88
2023-01-08T14:53:17.779Z,26.20
2023-01-08T14:55:46.930Z,25.92
2023-01-08T14:58:22.372Z,22.27
2023-01-08T15:03:37.630Z,27.80
2023-01-08T15:06:05.758Z,21.58
2023-01-08T15:08:43.886Z,26.17
2023-01-08T15:11:19.787Z,27.60
2023-01-08T15:13:48.199Z,30.80
2023-01-08T15:16:39.103Z,30.30
2023-01-08T15:19:14.556Z,21.77
2023-01-08T15:21:52.072Z,35.67
2023-01-08T15:24:23.927Z,29.13
2023-01-08T15:26:51.605Z,24.50
2023-01-08T15:29:47.388Z,25.90
2023-01-08T15:32:14.093Z,26.70
2023-01-08T15:34:44.849Z,29.60
2023-01-08T15:37:13.111Z,30.92
2023-01-08T15:39:39.761Z,26.05
2023-01-08T15:42:38.178Z,20.98
2023-01-08T15:45:06.183Z,22.30
2023-01-08T15:47:32.980Z,22.90
2023-01-08T15:49:59.928Z,27.05
2023-01-08T15:52:30.540Z,25.38
2023-01-08T15:54:59.045Z,19.85
2023-01-08T15:57:26.102Z,21.05
2023-01-08T15:59:52.903Z,20.27
2023-01-08T16:02:19.833Z,27.98
2023-01-08T16:04:55.796Z,33.00
2023-01-08T16:07:22.660Z,25.67
2023-01-08T16:09:49.544Z,24.95
2023-01-08T16:12:16.228Z,19.92
2023-01-08T16:14:42.950Z,29.40
2023-01-08T16:17:10.239Z,19.88
2023-01-08T16:19:37.034Z,23.88
2023-01-08T16:22:04.711Z,19.20
2023-01-08T16:24:31.707Z,19.15
2023-01-08T16:26:58.409Z,19.70
2023-01-08T16:29:27.727Z,22.67
2023-01-08T16:34:22.005Z,18.58
2023-01-08T16:36:50.244Z,17.73
2023-01-08T16:39:17.338Z,17.67
2023-01-08T16:41:44.064Z,18.13
2023-01-08T16:44:22.085Z,16.83
2023-01-08T16:46:48.977Z,16.27
2023-01-08T16:49:15.956Z,20.73
2023-01-08T16:51:42.953Z,24.00
2023-01-08T16:54:13.300Z,19.98
2023-01-08T16:56:40.152Z,17.13
2023-01-08T16:59:14.871Z,18.20
2023-01-08T17:01:49.037Z,18.35
2023-01-08T17:04:15.755Z,19.27
2023-01-08T17:06:42.433Z,16.27
2023-01-08T17:09:11.432Z,19.60
2023-01-08T17:14:04.944Z,29.25
2023-01-08T17:16:31.726Z,26.52
2023-01-08T17:18:58.383Z,15.27
2023-01-08T17:21:25.040Z,18.60
2023-01-08T17:23:51.818Z,15.50
2023-01-08T17:26:18.615Z,19.95
2023-01-08T17:28:46.604Z,14.63
2023-01-08T17:31:18.544Z,14.85
2023-01-08T17:33:50.144Z,13.27
2023-01-08T17:36:21.280Z,19.30
2023-01-08T17:38:50.151Z,17.85
2023-01-08T17:41:36.644Z,20.33
2023-01-08T17:44:06.831Z,15.50
2023-01-08T17:46:38.044Z,17.38
2023-01-08T17:49:05.636Z,17.60
2023-01-08T17:51:33.517Z,16.30
2023-01-08T17:54:00.908Z,14.32
2023-01-08T17:56:27.944Z,17.00
2023-01-08T17:58:54.716Z,14.10
2023-01-08T18:01:22.729Z,13.38
2023-01-08T18:03:49.717Z,17.17
2023-01-08T18:06:16.662Z,15.27
2023-01-08T18:08:43.385Z,13.65
2023-01-08T18:11:10.465Z,19.55
2023-01-08T18:13:37.784Z,15.57
2023-01-08T18:16:07.759Z,17.42
2023-01-08T18:18:35.290Z,20.23
2023-01-08T18:21:02.299Z,13.73
2023-01-08T18:23:29.344Z,12.45
2023-01-08T18:25:56.283Z,13.00
2023-01-08T18:28:23.302Z,15.63
2023-01-08T18:30:50.236Z,10.52
2023-01-08T18:33:16.936Z,11.27
2023-01-08T18:35:43.773Z,19.50
2023-01-08T18:38:15.589Z,13.38
2023-01-08T18:40:46.140Z,11.45
2023-01-08T18:43:12.991Z,10.00
2023-01-08T18:45:40.030Z,13.95
2023-01-08T18:48:09.552Z,11.38
2023-01-08T18:50:40.491Z,12.45
2023-01-08T18:53:10.183Z,10.18
2023-01-08T18:55:37.572Z,12.77
2023-01-08T18:58:04.805Z,11.45
2023-01-08T19:00:32.131Z,17.30
2023-01-08T19:02:58.961Z,13.88
2023-01-08T19:05:25.844Z,16.80
2023-01-08T19:07:52.547Z,14.60
2023-01-08T19:10:21.849Z,12.90
2023-01-08T19:15:15.669Z,12.20
2023-01-08T19:17:42.434Z,11.13
2023-01-08T19:20:10.142Z,13.40
2023-01-08T19:22:36.946Z,12.90
2023-01-08T19:25:03.767Z,11.20
2023-01-08T19:27:30.558Z,10.15
2023-01-08T19:29:57.260Z,15.95
2023-01-08T19:32:23.911Z,13.27
2023-01-08T19:34:50.773Z,10.38
2023-01-08T19:37:18.463Z,13.27
2023-01-08T19:39:45.298Z,11.10
2023-01-08T19:42:30.532Z,10.38
2023-01-08T19:44:57.528Z,9.60
2023-01-08T19:47:24.298Z,12.07
2023-01-08T19:49:51.027Z,11.68
2023-01-08T19:52:18.203Z,10.95
2023-01-08T19:54:45.010Z,9.65
2023-01-08T19:57:11.858Z,10.55
2023-01-08T19:59:38.570Z,11.18
2023-01-08T20:02:05.562Z,11.80
2023-01-08T20:04:35.114Z,10.65
2023-01-08T20:07:01.934Z,14.13
2023-01-08T20:09:29.142Z,13.63
2023-01-08T20:11:56.091Z,11.20
2023-01-08T20:14:22.757Z,15.52
2023-01-08T20:16:49.464Z,19.30
2023-01-08T20:19:16.167Z,19.73
2023-01-08T20:21:42.838Z,11.13
2023-01-08T20:24:15.089Z,10.02
2023-01-08T20:26:44.128Z,9.68
2023-01-08T20:29:12.343Z,10.77
2023-01-08T20:31:40.172Z,10.57
2023-01-08T20:34:11.974Z,11.32
2023-01-08T20:36:38.681Z,10.60
2023-01-08T20:39:14.637Z,12.82
2023-01-08T20:41:46.626Z,12.13
2023-01-08T20:44:22.583Z,9.57
2023-01-08T20:46:49.251Z,12.13
2023-01-08T20:49:18.417Z,13.20
2023-01-08T20:51:54.366Z,14.45
2023-01-08T20:54:25.188Z,11.85
2023-01-08T20:56:51.930Z,10.52
2023-01-08T20:59:21.022Z,11.18
2023-01-08T21:01:47.736Z,9.38
2023-01-08T21:04:14.841Z,13.63
2023-01-08T21:06:41.620Z,11.00
2023-01-08T21:09:10.375Z,11.85
2023-01-08T21:11:40.007Z,10.68
2023-01-08T21:14:10.844Z,11.60
2023-01-08T21:16:39.619Z,10.40
2023-01-08T21:19:07.101Z,13.07
2023-01-08T21:21:35.263Z,10.27
2023-01-08T21:24:04.495Z,10.63
2023-01-08T21:26:33.363Z,11.00
2023-01-08T21:29:04.959Z,11.93
2023-01-08T21:31:32.142Z,14.98
2023-01-08T21:33:59.729Z,10.35
2023-01-08T21:36:29.084Z,10.25
2023-01-08T21:38:57.251Z,10.80
2023-01-08T21:41:43.961Z,10.10
2023-01-08T21:44:37.923Z,10.68
2023-01-08T21:49:33.091Z,9.75
2023-01-08T21:52:18.719Z,11.75
2023-01-08T21:54:45.449Z,11.50
2023-01-08T21:57:12.287Z,11.65
2023-01-08T21:59:38.977Z,14.80
2023-01-08T22:02:07.597Z,12.63
2023-01-08T22:04:34.353Z,15.18
2023-01-08T22:07:01.014Z,9.90
2023-01-08T22:09:27.786Z,11.80
2023-01-08T22:11:56.067Z,10.27
2023-01-08T22:14:23.252Z,12.88
2023-01-08T22:16:49.985Z,10.35
2023-01-08T22:19:16.808Z,9.70
2023-01-08T22:21:43.646Z,18.48
2023-01-08T22:24:10.344Z,9.63
2023-01-08T22:26:37.167Z,10.57
2023-01-08T22:29:06.130Z,11.73
2023-01-08T22:31:33.703Z,12.75
2023-01-08T22:34:00.525Z,11.25
2023-01-08T22:36:27.608Z,8.52
2023-01-08T22:38:55.592Z,9.80
2023-01-08T22:41:23.799Z,9.75
2023-01-08T22:43:57.955Z,11.35
2023-01-08T22:46:25.153Z,13.60
2023-01-08T22:48:52.269Z,9.52
2023-01-08T22:51:27.922Z,11.27
2023-01-08T22:53:56.612Z,10.60
2023-01-08T22:56:23.643Z,12.90
2023-01-08T22:58:50.540Z,9.30
2023-01-08T23:01:20.078Z,13.93
2023-01-08T23:03:55.142Z,10.70
2023-01-08T23:06:27.216Z,15.10
2023-01-08T23:08:54.116Z,12.88
2023-01-08T23:11:21.604Z,9.05
2023-01-08T23:13:48.787Z,11.85
2023-01-08T23:16:17.386Z,11.32
2023-01-08T23:18:44.268Z,10.45
2023-01-08T23:21:17.152Z,10.45
2023-01-08T23:23:44.319Z,14.30
2023-01-08T23:26:20.045Z,11.95
2023-01-08T23:28:47.972Z,9.35
2023-01-08T23:31:17.441Z,11.30
2023-01-08T23:33:45.655Z,9.00
2023-01-08T23:36:21.761Z,10.98
2023-01-08T23:38:50.361Z,11.55
2023-01-08T23:41:17.519Z,13.88
2023-01-08T23:43:45.937Z,14.63
2023-01-08T23:46:13.609Z,11.10
2023-01-08T23:48:40.359Z,12.55
2023-01-08T23:51:07.565Z,10.05
2023-01-08T23:53:34.258Z,9.93
2023-01-08T23:56:01.132Z,10.40
2023-01-08T23:58:27.806Z,11.85
